This is the latest recevied weather packets stored in our database for station/object KG5APU. If no packets are shown the sender has not sent any weather packets the latest 10 day(s).
| Time | Temp. | Humidity | Pressure | Rain* | Wind** | Luminosity | Snow |
|---|---|---|---|---|---|---|---|
| 1777872831 | 20° C | 60% | 1016.4 hPa | 0 mm | - | 0 W/m² | - |
| 1777872227 | 20° C | 60% | 1016.4 hPa | 0 mm | - | 0 W/m² | - |
| 1777871626 | 20° C | 59% | 1016.4 hPa | 0 mm | - | 0 W/m² | - |
| 1777871020 | 20° C | 58% | 1016.5 hPa | 0 mm | - | 0 W/m² | - |
| 1777870418 | 20° C | 59% | 1016.7 hPa | 0 mm | - | 0 W/m² | - |
| 1777869812 | 20.56° C | 58% | 1016.7 hPa | 0 mm | - | 0 W/m² | - |
| 1777869212 | 20° C | 58% | 1016.6 hPa | 0 mm | - | 0 W/m² | - |
| 1777868612 | 20° C | 60% | 1016.7 hPa | 0 mm | - | 0 W/m² | - |
| 1777868010 | 20° C | 59% | 1016.5 hPa | 0 mm | - | 0 W/m² | - |
| 1777867410 | 20° C | 59% | 1016.7 hPa | 0 mm | - | 0 W/m² | - |
| 1777866810 | 20° C | 59% | 1016.7 hPa | 0 mm | - | 0 W/m² | - |
| 1777866204 | 20.56° C | 58% | 1016.8 hPa | 0 mm | - | 0 W/m² | - |
| 1777865599 | 20.56° C | 57% | 1016.7 hPa | 0 mm | - | 0 W/m² | - |
| 1777864998 | 20.56° C | 57% | 1016.8 hPa | 0 mm | - | 0 W/m² | - |
| 1777864398 | 21.11° C | 56% | 1016.7 hPa | 0 mm | - | 0 W/m² | - |
| 1777863798 | 21.11° C | 55% | 1016.4 hPa | 0 mm | - | 0 W/m² | - |
| 1777863197 | 21.11° C | 55% | 1016.4 hPa | 0 mm | - | 0 W/m² | - |
| 1777862595 | 21.67° C | 54% | 1016.7 hPa | 0 mm | - | 0 W/m² | - |
| 1777861995 | 21.67° C | 53% | 1016.5 hPa | 0 mm | - | 0 W/m² | - |
| 1777861393 | 21.67° C | 53% | 1016.7 hPa | 0 mm | - | 0 W/m² | - |
| 1777860794 | 21.67° C | 53% | 1016.5 hPa | 0 mm | - | 0 W/m² | - |
| 1777860193 | 22.22° C | 50% | 1016.3 hPa | 0 mm | - | 0 W/m² | - |
| 1777859591 | 22.78° C | 48% | 1016.5 hPa | 0 mm | - | 0 W/m² | - |
| 1777858989 | 22.78° C | 47% | 1016.5 hPa | 0 mm | - | 0 W/m² | - |
| 1777858385 | 23.33° C | 46% | 1016.3 hPa | 0 mm | - | 0 W/m² | - |
* Rain latest hour (hover to see other rain measurements)
** Current wind speed in m/s (hover to see current wind gust speed)